Time;durP1;ratioP1;P1;durP2;ratioP2;P2;SDS_P1;SDS_P2;PMS_P1;PMS_P2;Temp;Humidity;BMP_temperature;BMP_pressure;BME280_temperature;BME280_humidity;BME280_pressure;Samples;Min_cycle;Max_cycle;Signal;HPM_P1;HPM_P2
2023/02/13 00:02:16;;;;;;;11.23;7.45;;;10.80;81.00;;;;;;4841129;29;20046;-78
2023/02/13 00:04:42;;;;;;;11.38;7.57;;;10.80;81.00;;;;;;4832618;29;20068;-77
2023/02/13 00:07:10;;;;;;;10.00;7.13;;;10.80;81.70;;;;;;4857112;29;20045;-77
2023/02/13 00:09:36;;;;;;;10.80;7.20;;;10.70;81.00;;;;;;4840763;29;20034;-78
2023/02/13 00:12:03;;;;;;;10.77;7.45;;;10.70;81.00;;;;;;4857780;29;20399;-81
2023/02/13 00:14:29;;;;;;;11.23;8.15;;;10.80;81.10;;;;;;4845069;29;20087;-77
2023/02/13 00:16:55;;;;;;;10.88;7.43;;;10.70;81.00;;;;;;4845116;29;20057;-78
2023/02/13 00:19:21;;;;;;;11.43;8.10;;;10.70;81.00;;;;;;4860122;29;20398;-77
2023/02/13 00:21:46;;;;;;;12.60;8.02;;;10.70;81.00;;;;;;4860518;29;20045;-78
2023/02/13 00:24:12;;;;;;;10.73;7.40;;;10.70;81.00;;;;;;4861667;29;20041;-78
2023/02/13 00:26:38;;;;;;;11.20;7.53;;;10.70;81.00;;;;;;4848316;29;20763;-78
2023/02/13 00:29:04;;;;;;;9.85;7.13;;;10.70;81.00;;;;;;4837808;29;20037;-77
2023/02/13 00:31:30;;;;;;;11.48;7.78;;;10.70;81.70;;;;;;4861736;29;20049;-78
2023/02/13 00:33:56;;;;;;;11.27;7.55;;;10.60;81.00;;;;;;4841708;29;20049;-78
2023/02/13 00:36:23;;;;;;;9.68;7.07;;;10.70;81.00;;;;;;4841555;29;20042;-77
2023/02/13 00:38:50;;;;;;;10.88;7.20;;;10.60;81.00;;;;;;4845588;29;20093;-77
2023/02/13 00:41:16;;;;;;;10.10;6.88;;;10.70;81.10;;;;;;4856937;29;20490;-77
2023/02/13 00:43:43;;;;;;;11.43;7.40;;;10.60;81.00;;;;;;4843571;29;20132;-78
2023/02/13 00:46:09;;;;;;;9.80;7.13;;;10.60;81.00;;;;;;4854962;29;20070;-78
2023/02/13 00:48:35;;;;;;;9.38;6.97;;;10.60;81.00;;;;;;4842886;29;20041;-79
2023/02/13 00:51:02;;;;;;;10.35;7.50;;;10.60;81.00;;;;;;4845476;29;20056;-77
2023/02/13 00:53:29;;;;;;;10.85;7.47;;;10.60;81.00;;;;;;4860049;29;20060;-77
2023/02/13 00:55:56;;;;;;;11.13;7.45;;;10.60;81.00;;;;;;4862730;29;20029;-78
2023/02/13 00:58:22;;;;;;;10.60;7.28;;;10.60;81.00;;;;;;4859222;29;20041;-78
2023/02/13 01:00:51;;;;;;;10.20;7.28;;;10.60;81.00;;;;;;4864828;29;20029;-77
2023/02/13 01:03:17;;;;;;;10.82;7.13;;;10.60;81.00;;;;;;4862866;29;20041;-78
2023/02/13 01:05:45;;;;;;;10.38;6.95;;;10.60;81.00;;;;;;4863293;29;20033;-77
2023/02/13 01:08:12;;;;;;;11.02;7.22;;;10.50;80.90;;;;;;4859498;29;20490;-77
2023/02/13 01:10:38;;;;;;;10.18;7.32;;;10.50;80.90;;;;;;4855007;29;20771;-77
2023/02/13 01:13:08;;;;;;;10.70;7.18;;;10.60;81.10;;;;;;4861226;29;20121;-78
2023/02/13 01:15:34;;;;;;;10.80;7.57;;;10.50;81.00;;;;;;4834255;29;20029;-79
2023/02/13 01:18:00;;;;;;;10.82;7.25;;;10.50;81.00;;;;;;4836396;29;20040;-77
2023/02/13 01:20:27;;;;;;;10.13;6.60;;;10.50;80.90;;;;;;4831461;29;20037;-77
2023/02/13 01:22:53;;;;;;;10.75;7.57;;;10.50;80.90;;;;;;4859007;29;20065;-77
2023/02/13 01:25:19;;;;;;;10.80;6.90;;;10.50;80.90;;;;;;4843719;29;20116;-77
2023/02/13 01:27:45;;;;;;;11.15;7.75;;;10.50;81.00;;;;;;4840448;29;20740;-78
2023/02/13 01:30:13;;;;;;;10.88;7.10;;;10.50;81.00;;;;;;4851847;29;20038;-80
2023/02/13 01:32:40;;;;;;;10.20;7.20;;;10.50;81.00;;;;;;4850094;29;20504;-78
2023/02/13 01:35:08;;;;;;;11.73;7.65;;;10.50;81.00;;;;;;4865038;29;20036;-79
2023/02/13 01:37:33;;;;;;;11.13;7.45;;;10.50;81.00;;;;;;4841901;29;20032;-77
2023/02/13 01:40:00;;;;;;;10.18;7.28;;;10.50;81.00;;;;;;4843114;29;20045;-77
2023/02/13 01:42:29;;;;;;;11.43;7.78;;;10.50;81.00;;;;;;4847689;29;20463;-78
2023/02/13 01:44:58;;;;;;;11.48;7.53;;;10.50;81.00;;;;;;4858643;29;20522;-78
2023/02/13 01:47:43;;;;;;;9.68;7.03;;;10.50;81.00;;;;;;4867237;29;20025;-79
2023/02/13 01:50:18;;;;;;;10.18;6.82;;;10.50;81.10;;;;;;4856111;29;20100;-78
2023/02/13 01:52:50;;;;;;;11.02;7.47;;;10.50;81.00;;;;;;4847006;29;20039;-77
2023/02/13 01:55:17;;;;;;;10.07;7.00;;;10.50;81.00;;;;;;4858714;29;20045;-79
2023/02/13 01:57:48;;;;;;;9.98;7.00;;;10.40;80.90;;;;;;4851770;29;20109;-77
2023/02/13 02:00:16;;;;;;;9.82;7.18;;;10.40;81.00;;;;;;4858517;29;20360;-78
2023/02/13 02:02:54;;;;;;;10.88;7.22;;;10.40;81.00;;;;;;4854209;29;20503;-78
2023/02/13 02:05:27;;;;;;;10.50;6.93;;;10.40;81.00;;;;;;4853651;29;20033;-78
2023/02/13 02:07:56;;;;;;;9.07;6.20;;;10.40;81.00;;;;;;4857689;29;20113;-78
2023/02/13 02:10:23;;;;;;;9.85;6.90;;;10.40;81.00;;;;;;4875002;29;20462;-77
2023/02/13 02:13:13;;;;;;;10.48;6.97;;;10.40;81.00;;;;;;4830326;29;20062;-77
2023/02/13 02:15:40;;;;;;;10.68;7.45;;;10.40;81.10;;;;;;4851985;29;20030;-78
2023/02/13 02:18:21;;;;;;;10.48;6.53;;;10.40;81.00;;;;;;4862510;29;20029;-78
2023/02/13 02:20:53;;;;;;;10.00;6.05;;;10.40;81.10;;;;;;4856474;29;20489;-78
2023/02/13 02:23:48;;;;;;;11.43;6.93;;;10.40;81.10;;;;;;4861789;29;20431;-77
2023/02/13 02:26:15;;;;;;;;;;;10.40;81.10;;;;;;4822496;29;20033;-77
2023/02/13 02:28:55;;;;;;;9.45;6.30;;;10.40;80.90;;;;;;4864558;29;19919;-79
2023/02/13 02:31:53;;;;;;;8.38;6.20;;;10.40;81.60;;;;;;4837830;29;20049;-77
2023/02/13 02:34:38;;;;;;;9.20;6.28;;;10.40;81.10;;;;;;4841402;29;20033;-77
2023/02/13 02:37:10;;;;;;;8.63;6.32;;;10.30;81.00;;;;;;4844601;29;20101;-77
2023/02/13 02:39:36;;;;;;;10.38;6.78;;;10.30;81.00;;;;;;4870223;29;20368;-78
2023/02/13 02:42:32;;;;;;;10.25;7.35;;;10.30;81.10;;;;;;4860158;29;20036;-77
2023/02/13 02:44:58;;;;;;;9.43;6.63;;;10.30;81.10;;;;;;4841067;29;20045;-79
2023/02/13 02:50:29;;;;;;;8.95;6.25;;;10.30;81.10;;;;;;4858907;29;20037;-77
2023/02/13 02:53:13;;;;;;;9.35;6.60;;;10.40;81.10;;;;;;4842609;29;20040;-78
2023/02/13 02:55:54;;;;;;;9.73;6.88;;;10.30;81.10;;;;;;4844285;29;20037;-78
2023/02/13 03:07:20;;;;;;;8.35;5.72;;;10.30;81.10;;;;;;4853744;29;20076;-78
2023/02/13 03:24:39;;;;;;;9.25;6.03;;;10.30;81.20;;;;;;4872694;29;20665;-78
2023/02/13 03:27:11;;;;;;;9.35;6.53;;;10.30;81.10;;;;;;4843093;29;20033;-77
2023/02/13 03:33:08;;;;;;;10.00;6.57;;;10.30;81.20;;;;;;4854539;29;20053;-77
2023/02/13 03:38:41;;;;;;;9.82;6.70;;;10.30;81.10;;;;;;4862370;29;20036;-78
2023/02/13 03:41:18;;;;;;;9.07;6.25;;;10.30;81.10;;;;;;4857213;29;20085;-78
2023/02/13 03:43:58;;;;;;;10.57;7.30;;;10.30;81.20;;;;;;4858346;29;20044;-78
2023/02/13 03:46:27;;;;;;;10.00;6.72;;;10.30;81.20;;;;;;4863876;29;20045;-79
2023/02/13 03:51:56;;;;;;;10.38;6.53;;;10.30;81.20;;;;;;4856602;29;20037;-78
2023/02/13 04:00:02;;;;;;;10.48;6.85;;;10.30;81.10;;;;;;4865995;29;20040;-79
2023/02/13 04:03:05;;;;;;;9.32;6.32;;;10.30;81.10;;;;;;4863348;29;20591;-78
2023/02/13 04:05:39;;;;;;;9.65;6.55;;;10.20;81.10;;;;;;4870818;29;20440;-78
2023/02/13 04:08:05;;;;;;;10.48;6.85;;;10.30;81.20;;;;;;4842791;29;20037;-79
2023/02/13 04:10:34;;;;;;;9.63;6.57;;;10.20;81.10;;;;;;4854405;29;20041;-77
2023/02/13 04:13:24;;;;;;;10.93;7.13;;;10.30;81.20;;;;;;4871825;29;20399;-77
2023/02/13 04:16:01;;;;;;;9.55;6.32;;;10.30;81.20;;;;;;4840323;29;20033;-78
2023/02/13 04:18:32;;;;;;;10.23;6.68;;;10.30;81.10;;;;;;4862741;29;20022;-79
2023/02/13 04:21:06;;;;;;;9.55;6.57;;;10.30;81.10;;;;;;4851816;29;20033;-79
2023/02/13 04:23:32;;;;;;;10.40;7.13;;;10.30;81.20;;;;;;4855050;29;20470;-77
2023/02/13 04:26:02;;;;;;;10.63;6.97;;;10.30;81.10;;;;;;4859465;29;20501;-78
2023/02/13 04:28:28;;;;;;;10.38;7.28;;;10.30;81.20;;;;;;4859157;29;20078;-78
2023/02/13 04:30:54;;;;;;;9.25;6.90;;;10.30;81.10;;;;;;4841403;29;20479;-79
2023/02/13 04:33:20;;;;;;;11.43;6.85;;;10.20;81.10;;;;;;4860813;29;20045;-79
2023/02/13 04:35:46;;;;;;;11.02;7.45;;;10.20;81.10;;;;;;4830866;29;20120;-79
2023/02/13 04:38:12;;;;;;;10.60;7.97;;;10.20;81.10;;;;;;4843295;29;20471;-78
2023/02/13 04:40:37;;;;;;;10.82;7.47;;;10.30;81.20;;;;;;4828167;29;20049;-79
2023/02/13 04:43:03;;;;;;;11.10;6.97;;;10.20;81.10;;;;;;4860579;29;20045;-84
2023/02/13 04:45:29;;;;;;;10.93;7.80;;;10.20;81.10;;;;;;4828781;29;20403;-78
2023/02/13 04:47:56;;;;;;;10.55;7.00;;;10.30;81.20;;;;;;4841146;29;20042;-77
2023/02/13 04:50:22;;;;;;;11.13;7.28;;;10.30;81.20;;;;;;4843768;29;20443;-78
2023/02/13 04:52:53;;;;;;;11.32;7.50;;;10.20;81.10;;;;;;4846387;29;20049;-78
2023/02/13 04:55:19;;;;;;;10.13;7.00;;;10.20;81.10;;;;;;4859047;29;20041;-78
2023/02/13 04:57:45;;;;;;;10.77;7.78;;;10.20;81.10;;;;;;4862833;29;20037;-78
2023/02/13 05:00:11;;;;;;;10.43;7.15;;;10.20;81.10;;;;;;4858111;29;20076;-78
2023/02/13 05:02:37;;;;;;;10.60;7.07;;;10.20;81.10;;;;;;4846696;29;20368;-78
2023/02/13 05:05:03;;;;;;;10.73;7.38;;;10.20;81.10;;;;;;4851094;29;20040;-78
2023/02/13 05:07:28;;;;;;;10.20;7.20;;;10.30;81.10;;;;;;4863796;29;20085;-79
2023/02/13 05:09:54;;;;;;;9.95;6.63;;;10.20;81.10;;;;;;4820734;29;20042;-78
2023/02/13 05:12:20;;;;;;;10.75;6.93;;;10.20;81.10;;;;;;4839899;29;20414;-78
2023/02/13 05:14:45;;;;;;;11.05;7.43;;;10.20;81.10;;;;;;4846548;29;20037;-77
2023/02/13 05:17:11;;;;;;;9.32;6.45;;;10.20;81.10;;;;;;4833178;29;20461;-78
2023/02/13 05:19:37;;;;;;;10.68;7.32;;;10.20;81.10;;;;;;4849330;29;20085;-79
2023/02/13 05:24:47;;;;;;;9.77;6.80;;;10.20;81.10;;;;;;4837856;29;20038;-79
2023/02/13 05:27:12;;;;;;;10.88;7.15;;;10.20;81.10;;;;;;4840903;29;20360;-77
2023/02/13 05:29:38;;;;;;;10.90;7.68;;;10.20;81.10;;;;;;4841958;29;20114;-78
2023/02/13 05:32:04;;;;;;;12.32;8.10;;;10.20;81.10;;;;;;4862129;29;20061;-81
2023/02/13 05:34:29;;;;;;;11.05;7.70;;;10.20;81.10;;;;;;4858308;29;20061;-78
2023/02/13 05:36:55;;;;;;;10.38;6.97;;;10.20;81.10;;;;;;4839596;29;20125;-79
2023/02/13 05:39:21;;;;;;;10.77;7.18;;;10.20;81.10;;;;;;4824615;29;20102;-77
2023/02/13 05:41:48;;;;;;;10.88;7.25;;;10.30;81.10;;;;;;4841931;29;20029;-80
2023/02/13 05:44:15;;;;;;;9.88;7.35;;;10.20;81.30;;;;;;4859130;29;20459;-80
2023/02/13 05:46:41;;;;;;;11.60;7.30;;;10.20;81.10;;;;;;4858227;29;20033;-78
2023/02/13 05:49:09;;;;;;;10.35;7.72;;;10.20;81.10;;;;;;4864165;29;20038;-78
2023/02/13 05:51:35;;;;;;;11.43;7.47;;;10.20;81.10;;;;;;4829318;29;20025;-78
2023/02/13 05:54:01;;;;;;;10.25;7.00;;;10.20;81.10;;;;;;4857523;29;20041;-77
2023/02/13 05:56:27;;;;;;;11.27;7.40;;;10.20;81.10;;;;;;4861066;29;20045;-78
2023/02/13 05:58:54;;;;;;;9.90;7.07;;;10.20;81.10;;;;;;4846600;29;20034;-78
2023/02/13 06:01:22;;;;;;;10.82;6.80;;;10.20;81.10;;;;;;4854738;29;20112;-77
2023/02/13 06:03:48;;;;;;;10.88;6.97;;;10.20;81.10;;;;;;4858990;29;20120;-77
2023/02/13 06:06:14;;;;;;;9.93;6.93;;;10.20;81.10;;;;;;4857276;29;20046;-78
2023/02/13 06:08:40;;;;;;;10.55;7.18;;;10.20;81.10;;;;;;4857879;29;20042;-80
2023/02/13 06:11:08;;;;;;;10.60;6.88;;;10.20;81.10;;;;;;4844634;29;20398;-77
2023/02/13 06:13:33;;;;;;;10.95;7.75;;;10.20;81.10;;;;;;4859407;29;20033;-77
2023/02/13 06:15:59;;;;;;;10.38;7.18;;;10.20;81.10;;;;;;4831107;29;20049;-78
2023/02/13 06:18:25;;;;;;;10.52;7.35;;;10.20;81.10;;;;;;4857195;29;20037;-78
2023/02/13 06:20:50;;;;;;;11.30;7.82;;;10.20;81.10;;;;;;4859473;29;20033;-77
2023/02/13 06:23:16;;;;;;;11.25;7.95;;;10.20;81.10;;;;;;4864985;29;20041;-79
2023/02/13 06:25:42;;;;;;;10.40;7.85;;;10.20;81.10;;;;;;4857657;29;20029;-78
2023/02/13 06:28:08;;;;;;;11.63;7.85;;;10.20;81.10;;;;;;4841626;29;20121;-81
2023/02/13 06:30:33;;;;;;;11.75;8.13;;;10.20;81.10;;;;;;4858342;29;20037;-79
2023/02/13 06:33:00;;;;;;;10.88;7.60;;;10.20;81.10;;;;;;4842839;29;20463;-78
2023/02/13 06:35:26;;;;;;;10.80;7.28;;;10.20;81.10;;;;;;4861004;29;20109;-81
2023/02/13 06:37:52;;;;;;;11.10;7.97;;;10.20;81.10;;;;;;4833803;29;20170;-79
2023/02/13 06:40:18;;;;;;;9.93;7.45;;;10.20;81.20;;;;;;4856243;29;20612;-80
2023/02/13 06:42:44;;;;;;;11.40;7.50;;;10.20;81.20;;;;;;4857884;29;20037;-82
2023/02/13 06:45:11;;;;;;;11.35;7.28;;;10.20;81.20;;;;;;4837610;29;20026;-78
2023/02/13 06:47:45;;;;;;;11.55;8.30;;;10.20;81.20;;;;;;4838868;29;20045;-78
2023/02/13 06:50:12;;;;;;;11.77;8.13;;;10.20;81.20;;;;;;4855993;29;20113;-79
2023/02/13 06:52:38;;;;;;;11.32;8.23;;;10.20;81.10;;;;;;4845240;29;20029;-79
2023/02/13 06:55:04;;;;;;;11.90;8.35;;;10.20;81.10;;;;;;4847533;29;20501;-80
2023/02/13 06:57:32;;;;;;;10.95;7.82;;;10.20;81.20;;;;;;4874215;29;20038;-80
2023/02/13 07:00:04;;;;;;;10.68;7.75;;;10.10;81.10;;;;;;4862696;29;20037;-78
2023/02/13 07:02:31;;;;;;;11.32;7.88;;;10.20;81.20;;;;;;4829045;29;20089;-84
2023/02/13 07:04:57;;;;;;;11.95;7.95;;;10.10;81.10;;;;;;4859977;29;20036;-81
2023/02/13 07:07:24;;;;;;;10.52;7.15;;;10.10;81.10;;;;;;4855990;29;20440;-78
2023/02/13 07:09:49;;;;;;;11.38;7.80;;;10.20;81.20;;;;;;4836589;29;20784;-80
2023/02/13 07:12:15;;;;;;;10.57;7.45;;;10.10;81.10;;;;;;4841006;29;20030;-81
2023/02/13 07:14:41;;;;;;;11.52;7.78;;;10.10;81.10;;;;;;4837715;29;20134;-81
2023/02/13 07:17:06;;;;;;;12.57;8.18;;;10.10;81.10;;;;;;4853896;29;20051;-81
2023/02/13 07:19:32;;;;;;;10.00;7.40;;;10.10;81.10;;;;;;4841077;29;20034;-78
2023/02/13 07:21:58;;;;;;;12.45;7.57;;;10.20;81.20;;;;;;4884736;29;20467;-78
2023/02/13 07:24:24;;;;;;;11.55;7.55;;;10.10;81.10;;;;;;4859462;29;20078;-80
2023/02/13 07:26:50;;;;;;;11.18;8.10;;;10.10;81.10;;;;;;4844612;29;20042;-78
2023/02/13 07:29:16;;;;;;;11.07;7.82;;;10.10;81.10;;;;;;4836703;29;20128;-79
2023/02/13 07:31:41;;;;;;;11.13;7.88;;;10.10;81.20;;;;;;4875289;29;20637;-80
2023/02/13 07:34:07;;;;;;;11.13;8.13;;;10.10;81.10;;;;;;4842991;29;20086;-79
2023/02/13 07:36:33;;;;;;;11.15;7.65;;;10.10;81.10;;;;;;4841597;29;20513;-77
2023/02/13 07:38:59;;;;;;;12.35;8.43;;;10.20;81.20;;;;;;4842054;29;20069;-78
2023/02/13 07:41:25;;;;;;;12.00;8.18;;;10.10;81.20;;;;;;4817402;29;20129;-77
2023/02/13 07:43:52;;;;;;;12.20;8.30;;;10.10;81.20;;;;;;4842107;29;20371;-78
2023/02/13 07:46:18;;;;;;;10.50;7.97;;;10.10;81.20;;;;;;4841458;29;20434;-78
2023/02/13 07:48:43;;;;;;;11.95;7.95;;;10.10;81.20;;;;;;4842496;29;20033;-79
2023/02/13 07:51:09;;;;;;;10.95;7.80;;;10.10;81.20;;;;;;4844430;29;20026;-78
2023/02/13 07:53:35;;;;;;;12.02;8.77;;;10.10;81.20;;;;;;4867820;29;20454;-79
2023/02/13 07:56:06;;;;;;;11.00;8.20;;;10.10;81.20;;;;;;4820341;29;20025;-79
2023/02/13 07:58:31;;;;;;;13.05;9.20;;;10.10;81.20;;;;;;4855840;29;20037;-80
2023/02/13 08:00:57;;;;;;;12.60;8.65;;;10.10;81.20;;;;;;4848057;29;20040;-80
2023/02/13 08:03:23;;;;;;;10.90;8.02;;;10.10;81.20;;;;;;4880122;29;20033;-79
2023/02/13 08:05:49;;;;;;;11.25;7.95;;;10.10;81.20;;;;;;4865399;29;20053;-79
2023/02/13 08:08:15;;;;;;;10.65;7.90;;;10.10;81.20;;;;;;4865408;29;20041;-79
2023/02/13 08:13:26;;;;;;;11.57;8.25;;;10.10;81.20;;;;;;4857693;29;20399;-79
2023/02/13 08:15:52;;;;;;;12.45;9.07;;;10.10;81.20;;;;;;4841774;29;20034;-80
2023/02/13 08:18:17;;;;;;;11.65;8.60;;;10.10;81.20;;;;;;4865122;29;20504;-79
2023/02/13 08:20:43;;;;;;;11.70;7.97;;;10.10;81.20;;;;;;4859833;29;20034;-79
2023/02/13 08:23:10;;;;;;;11.85;8.60;;;10.10;81.20;;;;;;4850030;29;20691;-80
2023/02/13 08:25:37;;;;;;;11.45;8.18;;;10.10;81.20;;;;;;4872088;29;20119;-79
2023/02/13 08:28:04;;;;;;;11.70;8.73;;;10.10;81.20;;;;;;4872313;29;20037;-79
2023/02/13 08:30:30;;;;;;;11.63;8.13;;;10.10;81.20;;;;;;4850860;29;20673;-80
2023/02/13 08:32:56;;;;;;;10.85;8.50;;;10.10;81.20;;;;;;4844113;29;20073;-79
2023/02/13 08:35:25;;;;;;;13.43;9.30;;;10.10;81.20;;;;;;4844928;29;20041;-79
2023/02/13 08:37:52;;;;;;;12.05;8.95;;;10.10;81.20;;;;;;4864227;29;20060;-78
2023/02/13 08:40:18;;;;;;;10.77;7.95;;;10.10;81.20;;;;;;4859505;29;20259;-79
2023/02/13 08:42:43;;;;;;;12.35;9.10;;;10.10;81.20;;;;;;4828733;29;20041;-79
2023/02/13 08:45:10;;;;;;;11.85;8.98;;;10.10;81.20;;;;;;4854151;29;20033;-79
2023/02/13 08:47:37;;;;;;;11.65;8.82;;;10.20;81.30;;;;;;4831870;29;20038;-79
2023/02/13 08:50:03;;;;;;;12.30;8.82;;;10.10;81.90;;;;;;4858992;29;20410;-80
2023/02/13 08:52:29;;;;;;;12.10;8.52;;;10.10;81.20;;;;;;4811285;29;20490;-79
2023/02/13 08:54:54;;;;;;;13.35;9.50;;;10.10;81.20;;;;;;4863574;29;20025;-78
2023/02/13 08:57:20;;;;;;;12.68;9.20;;;10.10;81.20;;;;;;4840613;29;20064;-78
2023/02/13 08:59:46;;;;;;;12.68;9.35;;;10.20;81.30;;;;;;4849342;29;20424;-78
2023/02/13 09:02:12;;;;;;;12.07;8.77;;;10.20;81.30;;;;;;4859779;29;20061;-78
2023/02/13 09:04:38;;;;;;;13.38;9.50;;;10.20;81.30;;;;;;4860677;29;20072;-79
2023/02/13 09:07:03;;;;;;;12.45;9.02;;;10.20;81.30;;;;;;4843343;29;20074;-80
2023/02/13 09:09:29;;;;;;;11.88;9.02;;;10.20;81.30;;;;;;4860350;29;20033;-80
2023/02/13 09:11:56;;;;;;;12.32;9.30;;;10.20;81.20;;;;;;4842580;29;20068;-79
2023/02/13 09:14:25;;;;;;;12.85;9.27;;;10.20;81.30;;;;;;4844119;29;20052;-79
2023/02/13 09:16:51;;;;;;;12.27;9.52;;;10.20;81.30;;;;;;4859001;29;20030;-79
2023/02/13 09:19:17;;;;;;;12.25;8.40;;;10.20;81.20;;;;;;4858837;29;20037;-80
2023/02/13 09:21:42;;;;;;;12.00;8.40;;;10.20;81.30;;;;;;4858926;29;20490;-76
2023/02/13 09:24:09;;;;;;;13.20;9.55;;;10.20;81.20;;;;;;4853255;29;20037;-78
2023/02/13 09:26:35;;;;;;;11.93;8.98;;;10.20;81.30;;;;;;4875254;29;20128;-79
2023/02/13 09:29:01;;;;;;;13.32;9.35;;;10.20;81.20;;;;;;4858398;29;20415;-79
2023/02/13 09:31:27;;;;;;;12.05;8.55;;;10.20;81.20;;;;;;4827133;29;20509;-79
2023/02/13 09:33:53;;;;;;;12.63;9.43;;;10.20;81.20;;;;;;4858721;29;20045;-79
2023/02/13 09:36:23;;;;;;;12.18;9.00;;;10.30;81.20;;;;;;4859127;29;20034;-80
2023/02/13 09:38:54;;;;;;;11.90;8.75;;;10.30;81.20;;;;;;4857006;29;20029;-80
2023/02/13 09:41:33;;;;;;;12.38;8.90;;;10.30;81.20;;;;;;4852377;29;20033;-81
2023/02/13 09:44:03;;;;;;;11.88;8.88;;;10.30;81.20;;;;;;4838499;29;20073;-80
2023/02/13 09:46:36;;;;;;;11.73;8.65;;;10.30;81.20;;;;;;4855130;29;20117;-80
2023/02/13 09:49:12;;;;;;;12.82;9.05;;;10.40;81.50;;;;;;4857318;29;20029;-82
2023/02/13 09:51:40;;;;;;;12.50;8.63;;;10.40;81.20;;;;;;4850962;29;20478;-77
2023/02/13 09:54:07;;;;;;;12.07;9.10;;;10.40;81.20;;;;;;4850403;29;20124;-80
2023/02/13 09:56:40;;;;;;;10.95;8.32;;;10.40;81.20;;;;;;4833381;29;20058;-79
2023/02/13 09:59:19;;;;;;;12.32;8.73;;;10.40;81.20;;;;;;4854169;29;20113;-81
2023/02/13 10:01:49;;;;;;;10.93;8.45;;;10.50;81.20;;;;;;4860583;29;20029;-79
2023/02/13 10:04:24;;;;;;;11.85;8.65;;;10.50;81.20;;;;;;4857547;29;20076;-80
2023/02/13 10:07:13;;;;;;;11.40;8.52;;;10.50;81.20;;;;;;4851605;29;20022;-78
2023/02/13 10:10:01;;;;;;;11.30;8.27;;;10.50;81.30;;;;;;4853018;29;20052;-80
2023/02/13 10:12:57;;;;;;;11.73;8.35;;;10.50;81.40;;;;;;4857638;29;20041;-79
2023/02/13 10:15:38;;;;;;;11.27;8.25;;;10.60;81.30;;;;;;4856853;29;20471;-80
2023/02/13 10:18:09;;;;;;;11.10;8.45;;;10.60;81.20;;;;;;4847701;29;20496;-79
2023/02/13 10:20:51;;;;;;;10.43;7.80;;;10.60;81.30;;;;;;4858711;29;20030;-79
2023/02/13 10:23:25;;;;;;;12.18;8.43;;;10.70;81.40;;;;;;4860819;29;20037;-80
2023/02/13 10:26:05;;;;;;;12.03;8.83;;;10.70;81.40;;;;;;4857271;29;20188;-80
2023/02/13 10:28:43;;;;;;;11.73;8.65;;;10.80;81.40;;;;;;4858264;29;20064;-80
2023/02/13 10:31:11;;;;;;;11.25;8.40;;;10.80;81.30;;;;;;4862020;29;20026;-79
2023/02/13 10:33:47;;;;;;;12.07;8.85;;;10.80;81.30;;;;;;4858965;29;20050;-79
2023/02/13 10:36:35;;;;;;;11.55;8.73;;;10.90;81.40;;;;;;4834977;29;20042;-80
2023/02/13 10:39:03;;;;;;;12.68;8.95;;;10.90;81.40;;;;;;4868050;29;20151;-81
2023/02/13 10:41:57;;;;;;;13.02;9.27;;;10.90;81.40;;;;;;4857784;29;20078;-80
2023/02/13 10:45:07;;;;;;;12.02;8.73;;;11.00;81.60;;;;;;4857360;29;20029;-80
2023/02/13 10:48:04;;;;;;;11.60;8.60;;;11.00;81.60;;;;;;4860683;29;20063;-80
2023/02/13 10:50:45;;;;;;;10.55;8.05;;;11.00;81.60;;;;;;4851483;29;20029;-80
2023/02/13 10:53:27;;;;;;;11.63;8.30;;;11.10;81.60;;;;;;4858099;29;20059;-80
2023/02/13 10:56:06;;;;;;;11.75;8.93;;;11.10;81.60;;;;;;4859992;29;20120;-80
2023/02/13 10:58:51;;;;;;;10.85;8.15;;;11.10;81.60;;;;;;4852237;29;20069;-80
2023/02/13 11:01:32;;;;;;;10.70;8.40;;;11.20;81.70;;;;;;4857152;29;20037;-80
2023/02/13 11:04:15;;;;;;;10.35;7.90;;;11.20;81.70;;;;;;4872788;29;20069;-81
2023/02/13 11:06:55;;;;;;;10.73;7.93;;;11.30;81.80;;;;;;4852587;29;20563;-80
2023/02/13 11:09:20;;;;;;;12.02;8.75;;;11.30;81.80;;;;;;4856538;29;20029;-79
2023/02/13 11:11:46;;;;;;;11.45;8.75;;;11.30;81.70;;;;;;4836123;29;20030;-80
2023/02/13 11:14:22;;;;;;;11.70;9.00;;;11.40;81.90;;;;;;4828399;29;20486;-81
2023/02/13 11:16:48;;;;;;;11.70;8.38;;;11.40;81.90;;;;;;4858494;29;20061;-79
2023/02/13 11:19:24;;;;;;;11.25;9.05;;;11.40;81.80;;;;;;4859773;29;20109;-80
2023/02/13 11:21:56;;;;;;;11.05;8.73;;;11.50;81.90;;;;;;4861023;29;20021;-80
2023/02/13 11:24:25;;;;;;;11.20;8.75;;;11.50;81.90;;;;;;4850144;29;20048;-81
2023/02/13 11:26:56;;;;;;;11.27;8.93;;;11.60;81.90;;;;;;4852402;29;20025;-80
2023/02/13 11:29:28;;;;;;;10.85;8.18;;;11.60;81.90;;;;;;4841385;29;20029;-79
2023/02/13 11:32:28;;;;;;;11.52;8.77;;;11.60;82.00;;;;;;4853411;29;20056;-79
2023/02/13 11:34:54;;;;;;;12.38;8.75;;;11.70;82.10;;;;;;4862074;29;20108;-78
2023/02/13 11:37:25;;;;;;;11.43;8.60;;;11.70;81.90;;;;;;4847248;29;20029;-80
2023/02/13 11:39:53;;;;;;;11.50;8.70;;;11.70;82.00;;;;;;4854923;29;20033;-79
2023/02/13 11:42:33;;;;;;;10.90;8.77;;;11.70;82.10;;;;;;4856893;29;20704;-80
2023/02/13 11:45:22;;;;;;;11.73;9.13;;;11.80;82.20;;;;;;4855215;29;20517;-79
2023/02/13 11:47:48;;;;;;;11.13;8.63;;;11.80;82.20;;;;;;4865009;29;20025;-80
2023/02/13 11:50:35;;;;;;;11.00;9.02;;;11.90;82.10;;;;;;4860430;29;20026;-80
2023/02/13 11:53:07;;;;;;;11.07;8.90;;;11.90;82.30;;;;;;4841497;29;20054;-81
2023/02/13 11:55:38;;;;;;;11.07;8.40;;;11.90;82.20;;;;;;4857737;29;20033;-81
2023/02/13 11:58:23;;;;;;;12.35;9.07;;;11.90;82.20;;;;;;4857843;29;20029;-81
2023/02/13 12:01:05;;;;;;;10.35;7.90;;;12.00;82.40;;;;;;4862387;29;20032;-80
2023/02/13 12:03:31;;;;;;;11.77;9.00;;;12.00;82.30;;;;;;4854566;29;20116;-79
2023/02/13 12:06:17;;;;;;;10.93;8.65;;;12.00;82.30;;;;;;4872100;29;20059;-80
2023/02/13 12:08:46;;;;;;;10.85;8.98;;;12.10;82.50;;;;;;4867567;29;20058;-79
2023/02/13 12:11:21;;;;;;;12.23;9.10;;;12.10;82.40;;;;;;4860255;29;20561;-80
2023/02/13 12:13:47;;;;;;;11.52;9.18;;;12.20;82.50;;;;;;4854546;29;20379;-79
2023/02/13 12:16:27;;;;;;;11.13;8.82;;;12.10;82.40;;;;;;4857825;29;20066;-80
2023/02/13 12:18:57;;;;;;;11.55;8.75;;;12.20;82.50;;;;;;4860839;29;20467;-81
2023/02/13 12:21:50;;;;;;;11.35;8.35;;;12.20;82.50;;;;;;4857369;29;20051;-81
2023/02/13 12:24:47;;;;;;;11.82;8.50;;;12.30;82.60;;;;;;4857245;29;20073;-81
2023/02/13 12:27:55;;;;;;;11.38;9.05;;;12.30;82.60;;;;;;4858694;29;20056;-80
2023/02/13 12:30:38;;;;;;;10.63;8.23;;;12.30;82.60;;;;;;4859392;29;20056;-80
2023/02/13 12:33:38;;;;;;;10.50;7.80;;;12.40;82.60;;;;;;4860754;29;20572;-80
2023/02/13 12:36:44;;;;;;;10.35;7.50;;;12.40;82.70;;;;;;4853598;29;20054;-80
2023/02/13 12:39:33;;;;;;;11.40;8.23;;;12.50;82.70;;;;;;4858088;29;20045;-80
2023/02/13 12:42:25;;;;;;;10.13;7.88;;;12.50;82.70;;;;;;4864833;29;20026;-80
2023/02/13 12:45:09;;;;;;;9.60;7.57;;;12.50;82.70;;;;;;4862643;29;20051;-80
2023/02/13 12:48:01;;;;;;;10.80;8.32;;;12.60;82.70;;;;;;4859747;29;20109;-79
2023/02/13 12:50:48;;;;;;;10.43;8.10;;;12.60;82.70;;;;;;4842712;29;20029;-80
2023/02/13 12:53:17;;;;;;;10.60;7.80;;;12.60;82.70;;;;;;4862047;29;20487;-79
2023/02/13 12:55:52;;;;;;;11.02;8.57;;;12.70;82.70;;;;;;4858810;29;20022;-79
2023/02/13 12:58:45;;;;;;;10.65;8.13;;;12.70;82.80;;;;;;4864578;29;20082;-79
2023/02/13 13:01:26;;;;;;;9.95;7.60;;;12.80;82.90;;;;;;4857465;29;20045;-79
2023/02/13 13:04:16;;;;;;;10.77;8.25;;;12.80;82.80;;;;;;4859877;29;20036;-80
2023/02/13 13:06:48;;;;;;;10.93;8.07;;;12.80;82.90;;;;;;4856495;29;20033;-79
2023/02/13 13:09:27;;;;;;;9.75;7.95;;;12.90;82.80;;;;;;4856223;29;20057;-78
2023/02/13 13:12:11;;;;;;;11.02;8.63;;;12.90;82.90;;;;;;4875077;29;20022;-79
2023/02/13 13:15:09;;;;;;;10.15;8.60;;;13.00;83.00;;;;;;4858086;29;20077;-78
2023/02/13 13:18:02;;;;;;;9.13;7.35;;;13.00;83.00;;;;;;4858368;29;20033;-80
2023/02/13 13:20:40;;;;;;;9.68;7.40;;;13.00;83.00;;;;;;4843660;29;20489;-80
2023/02/13 13:23:16;;;;;;;9.63;7.82;;;13.10;82.90;;;;;;4852528;29;20037;-79
2023/02/13 13:25:54;;;;;;;10.93;8.27;;;13.10;83.10;;;;;;4850170;29;20037;-80
2023/02/13 13:28:20;;;;;;;9.88;7.72;;;13.20;83.10;;;;;;4859429;29;20034;-80
2023/02/13 13:30:47;;;;;;;10.55;8.07;;;13.20;83.10;;;;;;4857685;29;20065;-79
2023/02/13 13:33:18;;;;;;;10.63;8.32;;;13.20;83.10;;;;;;4858786;29;20088;-79
2023/02/13 13:36:00;;;;;;;10.55;8.50;;;13.30;83.20;;;;;;4858174;29;20061;-80
2023/02/13 13:38:50;;;;;;;9.45;8.13;;;13.30;83.20;;;;;;4860645;29;20033;-83
2023/02/13 13:41:44;;;;;;;10.27;7.78;;;13.30;83.30;;;;;;4858295;29;20117;-83
2023/02/13 13:44:27;;;;;;;10.00;7.60;;;13.30;83.20;;;;;;4837125;29;20514;-84
2023/02/13 13:46:58;;;;;;;8.95;7.20;;;13.40;83.00;;;;;;4860521;29;20029;-84
2023/02/13 13:49:53;;;;;;;9.65;7.70;;;13.50;82.80;;;;;;4860759;29;20475;-84